Newburg, Missouri
Current Conditions -  °F | °C
As of 3:53 AM on Saturday 29 Nov 2014 (Local Time) from KVIH Reporting Station
Clear Clear  
Wind Chill: 38°   Ceiling: Unl
Heat Index: 46°   Visibility: 10mi
Dew Point: 38°   Wind: 20mph
Humidity: 73%   Direction: 190°S
Pressure: 29.76"   Gusts: NA
Location:  37.91°N, 91.9°W
Report Text: KVIH 290953Z AUTO 19017KT 10SM CLR 08/03 A2976 RMK AO2 SLP077 T00780033
Loading
Personal Weather Stations






























Interactive Weather Map New forecast layout! Learn more

10-Day Weather Forecast

Advertisements
Track Severe Weather on mobile